createdAt,value
2022-11-22T00:01:26.034Z,7.32
2022-11-22T00:03:52.627Z,11.00
2022-11-22T00:06:19.193Z,7.50
2022-11-22T00:08:45.822Z,9.65
2022-11-22T00:11:12.388Z,6.70
2022-11-22T00:13:38.958Z,6.35
2022-11-22T00:16:05.544Z,7.47
2022-11-22T00:18:32.278Z,10.85
2022-11-22T00:21:05.444Z,7.85
2022-11-22T00:23:32.032Z,6.97
2022-11-22T00:25:58.633Z,10.48
2022-11-22T00:28:25.250Z,6.88
2022-11-22T00:30:51.803Z,7.30
2022-11-22T00:33:18.405Z,6.88
2022-11-22T00:35:46.307Z,6.22
2022-11-22T00:38:12.879Z,8.10
2022-11-22T00:40:39.487Z,8.52
2022-11-22T00:43:06.057Z,5.63
2022-11-22T00:45:32.598Z,6.90
2022-11-22T00:47:59.150Z,8.05
2022-11-22T00:50:25.696Z,11.13
2022-11-22T00:52:52.258Z,6.05
2022-11-22T00:55:18.810Z,5.85
2022-11-22T00:57:45.360Z,8.02
2022-11-22T01:00:12.496Z,5.32
2022-11-22T01:02:39.094Z,5.88
2022-11-22T01:05:06.085Z,8.05
2022-11-22T01:07:32.794Z,4.43
2022-11-22T01:09:59.416Z,7.10
2022-11-22T01:12:25.998Z,7.30
2022-11-22T01:14:52.548Z,9.38
2022-11-22T01:17:19.155Z,12.77
2022-11-22T01:19:46.116Z,8.70
2022-11-22T01:22:12.678Z,9.65
2022-11-22T01:24:39.403Z,6.03
2022-11-22T01:27:05.988Z,6.80
2022-11-22T01:29:32.792Z,7.38
2022-11-22T01:31:59.465Z,9.15
2022-11-22T01:34:26.018Z,7.80
2022-11-22T01:36:52.641Z,7.03
2022-11-22T01:39:19.270Z,6.32
2022-11-22T01:41:45.852Z,8.40
2022-11-22T01:44:18.606Z,6.30
2022-11-22T01:46:45.186Z,5.43
2022-11-22T01:49:28.472Z,6.65
2022-11-22T01:51:58.338Z,8.02
2022-11-22T01:54:26.098Z,4.18
2022-11-22T01:56:57.173Z,8.07
2022-11-22T01:59:25.973Z,8.32
2022-11-22T02:01:53.284Z,6.57
2022-11-22T02:04:19.981Z,4.50
2022-11-22T02:06:55.350Z,6.00
2022-11-22T02:09:21.959Z,6.43
2022-11-22T02:11:50.746Z,6.82
2022-11-22T02:14:19.736Z,3.97
2022-11-22T02:16:46.415Z,4.97
2022-11-22T02:19:51.019Z,4.82
2022-11-22T02:22:38.750Z,4.97
2022-11-22T02:25:40.432Z,4.38
2022-11-22T02:28:10.696Z,3.38
2022-11-22T02:30:37.483Z,5.20
2022-11-22T02:33:04.766Z,3.15
2022-11-22T02:35:31.483Z,5.68
2022-11-22T02:37:58.460Z,5.03
2022-11-22T02:40:25.502Z,5.82
2022-11-22T02:43:14.030Z,4.20
2022-11-22T02:45:40.593Z,4.03
2022-11-22T02:48:08.793Z,3.40
2022-11-22T02:50:35.817Z,6.10
2022-11-22T02:53:02.406Z,5.43
2022-11-22T02:55:29.044Z,4.00
2022-11-22T02:57:55.796Z,5.63
2022-11-22T03:00:22.665Z,5.85
2022-11-22T03:02:49.327Z,3.88
2022-11-22T03:05:16.135Z,4.53
2022-11-22T03:07:42.770Z,4.78
2022-11-22T03:10:09.832Z,6.60
2022-11-22T03:12:36.483Z,3.55
2022-11-22T03:15:03.394Z,4.93
2022-11-22T03:17:29.971Z,4.80
2022-11-22T03:19:56.527Z,4.15
2022-11-22T03:22:23.086Z,6.20
2022-11-22T03:24:49.622Z,4.75
2022-11-22T03:27:16.249Z,5.47
2022-11-22T03:29:42.797Z,4.05
2022-11-22T03:32:09.398Z,4.95
2022-11-22T03:34:35.924Z,6.60
2022-11-22T03:37:02.721Z,5.15
2022-11-22T03:39:29.575Z,6.07
2022-11-22T03:41:56.555Z,4.90
2022-11-22T03:44:23.862Z,4.85
2022-11-22T03:46:50.483Z,4.40
2022-11-22T03:49:17.025Z,7.10
2022-11-22T03:51:44.031Z,4.75
2022-11-22T03:54:10.714Z,5.15
2022-11-22T03:56:37.290Z,6.60
2022-11-22T03:59:05.007Z,5.90
2022-11-22T04:01:31.611Z,4.97
2022-11-22T04:03:58.319Z,2.55
2022-11-22T04:06:24.877Z,3.15
2022-11-22T04:08:51.520Z,9.15
2022-11-22T04:11:18.083Z,4.60
2022-11-22T04:14:02.922Z,3.20
2022-11-22T04:16:29.457Z,3.78
2022-11-22T04:18:56.021Z,4.15
2022-11-22T04:21:34.957Z,4.70
2022-11-22T04:24:22.380Z,4.63
2022-11-22T04:26:49.187Z,3.33
2022-11-22T04:29:16.688Z,5.55
2022-11-22T04:32:02.085Z,2.42
2022-11-22T04:34:28.730Z,3.63
2022-11-22T04:36:55.319Z,4.07
2022-11-22T04:39:21.859Z,5.95
2022-11-22T04:42:08.383Z,5.03
2022-11-22T04:44:40.882Z,3.22
2022-11-22T04:47:12.795Z,9.80
2022-11-22T04:49:39.370Z,4.53
2022-11-22T04:52:24.468Z,5.70
2022-11-22T04:54:51.034Z,4.13
2022-11-22T04:57:17.647Z,6.53
2022-11-22T04:59:44.215Z,4.78
2022-11-22T05:02:10.786Z,6.10
2022-11-22T05:04:37.301Z,5.63
2022-11-22T05:07:03.912Z,4.85
2022-11-22T05:09:30.841Z,4.43
2022-11-22T05:11:57.631Z,3.45
2022-11-22T05:14:24.159Z,4.95
2022-11-22T05:16:50.728Z,3.95
2022-11-22T05:19:17.279Z,4.57
2022-11-22T05:21:43.855Z,5.03
2022-11-22T05:24:10.386Z,5.80
2022-11-22T05:26:36.976Z,7.28
2022-11-22T05:29:08.293Z,5.15
2022-11-22T05:31:36.305Z,6.05
2022-11-22T05:34:02.974Z,11.45
2022-11-22T05:36:31.587Z,7.65
2022-11-22T05:38:58.192Z,10.27
2022-11-22T05:41:24.821Z,6.75
2022-11-22T05:43:51.564Z,5.18
2022-11-22T05:46:25.161Z,5.15
2022-11-22T05:48:52.872Z,6.15
2022-11-22T05:51:20.975Z,4.60
2022-11-22T05:53:47.751Z,6.30
2022-11-22T05:56:19.241Z,6.50
2022-11-22T05:58:46.036Z,5.32
2022-11-22T06:01:15.978Z,12.80
2022-11-22T06:03:43.062Z,6.60
2022-11-22T06:06:09.783Z,6.85
2022-11-22T06:08:37.912Z,6.80
2022-11-22T06:11:06.181Z,10.10
2022-11-22T06:13:40.364Z,9.00
2022-11-22T06:16:08.270Z,6.97
2022-11-22T06:18:35.299Z,6.60
2022-11-22T06:21:03.892Z,8.45
2022-11-22T06:23:30.725Z,4.97
2022-11-22T06:26:02.574Z,6.93
2022-11-22T06:28:30.644Z,7.53
2022-11-22T06:31:07.495Z,5.82
2022-11-22T06:33:34.403Z,5.85
2022-11-22T06:36:05.322Z,8.82
2022-11-22T06:38:32.376Z,9.98
2022-11-22T06:41:02.589Z,8.98
2022-11-22T06:43:32.979Z,9.82
2022-11-22T06:46:00.537Z,6.55
2022-11-22T06:48:29.132Z,10.68
2022-11-22T06:51:03.318Z,6.50
2022-11-22T06:53:46.742Z,9.98
2022-11-22T06:56:16.877Z,7.57
2022-11-22T06:58:43.766Z,7.68
2022-11-22T07:01:15.547Z,8.52
2022-11-22T07:03:42.691Z,12.45
2022-11-22T07:06:10.544Z,18.10
2022-11-22T07:08:38.435Z,20.17
2022-11-22T07:11:12.148Z,23.77
2022-11-22T07:13:38.867Z,27.77
2022-11-22T07:16:06.823Z,24.65
2022-11-22T07:18:33.618Z,17.67
2022-11-22T07:21:10.893Z,14.20
2022-11-22T07:23:39.835Z,16.75
2022-11-22T07:26:06.526Z,11.43
2022-11-22T07:28:33.257Z,11.88
2022-11-22T07:31:04.032Z,12.55
2022-11-22T07:33:30.716Z,9.35
2022-11-22T07:36:03.197Z,7.07
2022-11-22T07:38:29.771Z,11.80
2022-11-22T07:40:56.328Z,9.75
2022-11-22T07:43:22.909Z,9.98
2022-11-22T07:45:49.440Z,10.88
2022-11-22T07:48:16.026Z,11.50
2022-11-22T07:50:42.676Z,9.68
2022-11-22T07:53:09.879Z,8.48
2022-11-22T07:55:36.602Z,12.52
2022-11-22T07:58:03.319Z,8.70
2022-11-22T08:00:29.887Z,10.18
2022-11-22T08:02:57.663Z,11.15
2022-11-22T08:05:24.417Z,8.25
2022-11-22T08:07:52.353Z,8.60
2022-11-22T08:10:19.400Z,7.55
2022-11-22T08:12:46.056Z,15.32
2022-11-22T08:15:13.890Z,12.40
2022-11-22T08:17:40.994Z,9.27
2022-11-22T08:20:11.175Z,8.25
2022-11-22T08:22:38.369Z,13.32
2022-11-22T08:25:07.825Z,9.63
2022-11-22T08:27:34.414Z,9.93
2022-11-22T08:30:01.000Z,7.43
2022-11-22T08:32:27.607Z,7.35
2022-11-22T08:34:54.410Z,9.32
2022-11-22T08:37:20.971Z,10.95
2022-11-22T08:39:47.546Z,10.07
2022-11-22T08:42:14.099Z,8.57
2022-11-22T08:44:40.767Z,10.30
2022-11-22T08:47:07.490Z,9.15
2022-11-22T08:49:34.241Z,6.22
2022-11-22T08:52:00.831Z,6.78
2022-11-22T08:54:28.076Z,10.13
2022-11-22T08:56:59.433Z,10.23
2022-11-22T08:59:26.096Z,8.88
2022-11-22T09:01:52.902Z,7.25
2022-11-22T09:04:19.529Z,10.90
2022-11-22T09:09:37.640Z,9.55
2022-11-22T09:12:05.194Z,11.30
2022-11-22T09:14:31.769Z,10.63
2022-11-22T09:16:58.362Z,13.18
2022-11-22T09:19:24.964Z,7.10
2022-11-22T09:21:51.509Z,8.05
2022-11-22T09:24:18.177Z,7.78
2022-11-22T09:26:44.767Z,5.65
2022-11-22T09:29:11.353Z,7.00
2022-11-22T09:31:37.902Z,7.32
2022-11-22T09:34:04.828Z,10.93
2022-11-22T09:36:31.384Z,11.27
2022-11-22T09:38:58.012Z,10.68
2022-11-22T09:41:45.753Z,9.32
2022-11-22T09:44:22.435Z,9.27
2022-11-22T09:47:06.633Z,6.85
2022-11-22T09:49:54.916Z,8.57
2022-11-22T09:52:33.234Z,7.43
2022-11-22T09:55:02.385Z,6.93
2022-11-22T09:57:49.390Z,4.82
2022-11-22T10:00:21.863Z,11.10
2022-11-22T10:03:04.789Z,6.32
2022-11-22T10:05:54.218Z,6.28
2022-11-22T10:08:42.435Z,11.82
2022-11-22T10:11:37.255Z,9.23
2022-11-22T10:14:09.591Z,7.00
2022-11-22T10:16:44.313Z,3.28
2022-11-22T10:19:21.028Z,8.30
2022-11-22T10:21:48.058Z,7.35
2022-11-22T10:24:15.998Z,7.88
2022-11-22T10:26:42.870Z,6.40
2022-11-22T10:29:37.720Z,8.70
2022-11-22T10:32:18.842Z,9.40
2022-11-22T10:34:51.411Z,7.47
2022-11-22T10:37:33.447Z,8.88
2022-11-22T10:40:15.232Z,6.47
2022-11-22T10:42:51.015Z,5.78
2022-11-22T10:45:25.057Z,4.93
2022-11-22T10:48:13.103Z,6.72
2022-11-22T10:50:54.187Z,3.88
2022-11-22T10:53:29.694Z,7.75
2022-11-22T10:56:21.604Z,9.82
2022-11-22T10:59:23.105Z,6.07
2022-11-22T11:02:32.219Z,9.57
2022-11-22T11:04:58.816Z,5.97
2022-11-22T11:07:25.549Z,7.25
2022-11-22T11:10:26.350Z,5.88
2022-11-22T11:12:59.714Z,7.00
2022-11-22T11:15:39.355Z,3.90
2022-11-22T11:18:21.518Z,6.05
2022-11-22T11:20:48.427Z,6.35
2022-11-22T11:23:16.229Z,7.25
2022-11-22T11:25:44.705Z,9.70
2022-11-22T11:28:23.545Z,5.15
2022-11-22T11:30:51.471Z,3.80
2022-11-22T11:33:24.048Z,8.50
2022-11-22T11:35:51.753Z,6.15
2022-11-22T11:38:29.481Z,5.90
2022-11-22T11:40:56.121Z,6.30
2022-11-22T11:43:23.962Z,6.85
2022-11-22T11:45:50.818Z,9.35
2022-11-22T11:48:41.240Z,4.93
2022-11-22T11:51:27.155Z,3.13
2022-11-22T11:54:04.127Z,5.97
2022-11-22T11:56:34.763Z,5.75
2022-11-22T11:59:05.834Z,8.70
2022-11-22T12:01:38.549Z,7.03
2022-11-22T12:04:06.471Z,4.57
2022-11-22T12:06:33.247Z,3.97
2022-11-22T12:09:00.619Z,6.40
2022-11-22T12:11:37.614Z,5.43
2022-11-22T12:14:19.592Z,3.75
2022-11-22T12:16:47.549Z,2.33
2022-11-22T12:19:33.019Z,4.93
2022-11-22T12:22:48.185Z,3.40
2022-11-22T12:25:38.892Z,4.90
2022-11-22T12:28:33.551Z,3.70
2022-11-22T12:31:13.584Z,3.00
2022-11-22T12:33:47.370Z,4.35
2022-11-22T12:36:35.084Z,4.70
2022-11-22T12:39:02.628Z,3.97
2022-11-22T12:41:29.336Z,5.32
2022-11-22T12:44:01.189Z,5.68
2022-11-22T12:46:43.949Z,6.50
2022-11-22T12:49:33.250Z,5.50
2022-11-22T12:52:14.886Z,2.50
2022-11-22T12:54:44.624Z,5.25
2022-11-22T12:57:15.610Z,2.58
2022-11-22T13:00:07.362Z,4.18
2022-11-22T13:02:39.866Z,6.18
2022-11-22T13:05:13.996Z,3.47
2022-11-22T13:07:55.793Z,3.78
2022-11-22T13:10:49.903Z,6.88
2022-11-22T13:13:22.152Z,5.28
2022-11-22T13:15:48.760Z,7.63
2022-11-22T13:18:16.834Z,3.33
2022-11-22T13:21:07.102Z,1.67
2022-11-22T13:23:40.883Z,4.90
2022-11-22T13:26:27.163Z,6.07
2022-11-22T13:28:53.808Z,8.43
2022-11-22T13:31:20.738Z,4.00
2022-11-22T13:34:00.493Z,2.00
2022-11-22T13:36:26.958Z,4.60
2022-11-22T13:39:09.651Z,1.63
2022-11-22T13:41:46.707Z,4.95
2022-11-22T13:44:22.293Z,4.55
2022-11-22T13:47:03.593Z,3.25
2022-11-22T13:49:38.318Z,5.70
2022-11-22T13:52:28.250Z,7.28
2022-11-22T13:55:01.259Z,4.68
2022-11-22T14:00:21.590Z,3.88
2022-11-22T14:02:51.567Z,7.70
2022-11-22T14:05:24.619Z,3.00
2022-11-22T14:10:51.176Z,3.15
2022-11-22T14:13:41.742Z,2.50
2022-11-22T14:16:51.964Z,2.63
2022-11-22T14:19:37.549Z,2.33
2022-11-22T14:22:19.579Z,1.55
2022-11-22T14:25:21.893Z,2.40
2022-11-22T14:28:01.597Z,2.92
2022-11-22T14:30:49.996Z,5.07
2022-11-22T14:33:23.604Z,1.92
2022-11-22T14:36:09.445Z,4.05
2022-11-22T14:38:40.152Z,2.97
2022-11-22T14:41:28.622Z,1.30
2022-11-22T14:44:08.283Z,3.10
2022-11-22T14:46:53.910Z,1.33
2022-11-22T14:49:26.832Z,2.35
2022-11-22T14:51:54.521Z,4.15
2022-11-22T14:54:22.578Z,3.67
2022-11-22T14:56:49.672Z,2.85
2022-11-22T14:59:48.867Z,7.45
2022-11-22T15:02:38.651Z,14.25
2022-11-22T15:09:10.290Z,10.30
2022-11-22T15:09:15.571Z,8.57
2022-11-22T15:11:57.389Z,4.55
2022-11-22T15:14:47.065Z,5.50
2022-11-22T15:57:34.779Z,9.75
2022-11-22T16:00:01.848Z,10.88
2022-11-22T16:02:30.293Z,6.47
2022-11-22T16:06:08.848Z,6.43
2022-11-22T16:07:51.626Z,4.90
2022-11-22T16:10:39.784Z,6.85
2022-11-22T16:13:21.422Z,24.75
2022-11-22T16:16:12.810Z,21.75
2022-11-22T16:18:45.507Z,8.82
2022-11-22T16:21:12.430Z,3.55
2022-11-22T16:23:40.180Z,5.03
2022-11-22T16:26:30.761Z,5.30
2022-11-22T16:29:32.537Z,7.75
2022-11-22T16:32:15.097Z,11.63
2022-11-22T16:34:44.744Z,6.82
2022-11-22T16:37:28.993Z,5.70
2022-11-22T16:39:58.633Z,5.45
2022-11-22T16:42:25.711Z,4.63
2022-11-22T16:44:52.423Z,4.63
2022-11-22T16:47:19.372Z,4.07
2022-11-22T16:49:46.552Z,5.45
2022-11-22T16:52:13.938Z,5.88
2022-11-22T16:54:40.968Z,11.27
2022-11-22T16:57:11.702Z,15.75
2022-11-22T16:59:38.514Z,25.70
2022-11-22T17:02:16.634Z,25.95
2022-11-22T17:04:46.488Z,63.05
2022-11-22T17:07:13.951Z,47.95
2022-11-22T17:09:40.851Z,12.55
2022-11-22T17:12:14.570Z,9.00
2022-11-22T17:14:41.214Z,4.95
2022-11-22T17:17:11.272Z,6.40
2022-11-22T17:19:52.773Z,11.50
2022-11-22T17:22:20.198Z,3.77
2022-11-22T17:24:47.008Z,4.25
2022-11-22T17:27:14.345Z,6.75
2022-11-22T17:29:56.792Z,5.68
2022-11-22T17:32:23.434Z,3.50
2022-11-22T17:34:50.044Z,4.32
2022-11-22T17:37:16.666Z,5.72
2022-11-22T17:39:43.302Z,5.15
2022-11-22T17:42:12.014Z,4.13
2022-11-22T17:44:38.697Z,2.90
2022-11-22T17:47:05.288Z,3.40
2022-11-22T17:49:32.260Z,3.10
2022-11-22T17:51:59.031Z,4.45
2022-11-22T17:54:25.682Z,5.75
2022-11-22T17:56:52.266Z,3.45
2022-11-22T17:59:19.576Z,4.45
2022-11-22T18:01:46.187Z,3.47
2022-11-22T18:04:14.799Z,2.00
2022-11-22T18:06:41.412Z,2.40
2022-11-22T18:09:07.979Z,6.20
2022-11-22T18:11:35.324Z,3.45
2022-11-22T18:14:01.919Z,2.70
2022-11-22T18:16:29.027Z,2.60
2022-11-22T18:18:57.444Z,4.70
2022-11-22T18:21:25.501Z,6.00
2022-11-22T18:23:52.097Z,4.97
2022-11-22T18:31:53.390Z,4.13
2022-11-22T18:34:21.690Z,4.22
2022-11-22T18:37:04.682Z,4.50
2022-11-22T18:42:08.177Z,3.90
2022-11-22T18:44:34.770Z,4.90
2022-11-22T18:47:01.725Z,2.75
2022-11-22T18:49:28.384Z,4.15
2022-11-22T18:51:55.769Z,4.35
2022-11-22T18:54:22.929Z,3.10
2022-11-22T18:56:50.512Z,3.97
2022-11-22T18:59:17.207Z,5.45
2022-11-22T19:01:43.797Z,3.03
2022-11-22T19:04:13.664Z,4.95
2022-11-22T19:06:40.724Z,5.65
2022-11-22T19:09:07.475Z,5.65
2022-11-22T19:11:34.138Z,3.40
2022-11-22T19:14:01.032Z,2.33
2022-11-22T19:16:29.667Z,4.35
2022-11-22T19:18:56.913Z,2.65
2022-11-22T19:21:26.095Z,4.57
2022-11-22T19:23:52.857Z,4.47
2022-11-22T19:26:21.727Z,3.83
2022-11-22T19:28:49.157Z,2.80
2022-11-22T19:31:18.571Z,3.13
2022-11-22T19:33:45.818Z,4.20
2022-11-22T19:36:19.196Z,5.28
2022-11-22T19:38:46.386Z,5.05
2022-11-22T19:41:17.356Z,5.10
2022-11-22T19:43:44.470Z,4.32
2022-11-22T19:46:11.326Z,3.40
2022-11-22T19:48:41.175Z,4.70
2022-11-22T19:51:13.960Z,5.45
2022-11-22T19:53:45.194Z,4.47
2022-11-22T19:56:16.921Z,6.50
2022-11-22T19:58:44.584Z,4.82
2022-11-22T20:01:15.561Z,4.40
2022-11-22T20:03:44.538Z,5.55
2022-11-22T20:06:12.601Z,3.88
2022-11-22T20:08:39.351Z,6.25
2022-11-22T20:11:11.583Z,3.00
2022-11-22T20:13:41.316Z,2.43
2022-11-22T20:16:10.856Z,4.30
2022-11-22T20:18:37.824Z,2.53
2022-11-22T20:21:05.104Z,4.22
2022-11-22T20:23:32.176Z,4.45
2022-11-22T20:26:12.076Z,4.53
2022-11-22T20:28:39.684Z,6.50
2022-11-22T20:31:13.091Z,5.82
2022-11-22T20:33:41.568Z,4.10
2022-11-22T20:36:11.210Z,4.55
2022-11-22T20:38:40.569Z,4.18
2022-11-22T20:41:08.093Z,3.92
2022-11-22T20:43:35.747Z,7.00
2022-11-22T20:46:05.237Z,4.30
2022-11-22T20:48:32.469Z,6.15
2022-11-22T20:50:59.675Z,4.75
2022-11-22T20:53:26.564Z,7.05
2022-11-22T20:55:53.171Z,6.78
2022-11-22T20:58:19.796Z,8.68
2022-11-22T21:00:46.412Z,5.85
2022-11-22T21:03:13.006Z,6.10
2022-11-22T21:05:39.576Z,4.65
2022-11-22T21:08:06.613Z,4.60
2022-11-22T21:10:33.362Z,5.05
2022-11-22T21:13:00.400Z,5.00
2022-11-22T21:15:26.991Z,6.15
2022-11-22T21:18:23.027Z,7.25
2022-11-22T21:20:42.030Z,6.13
2022-11-22T21:23:08.823Z,5.55
2022-11-22T21:25:35.484Z,6.10
2022-11-22T21:28:02.069Z,8.85
2022-11-22T21:30:28.620Z,6.05
2022-11-22T21:32:55.207Z,5.75
2022-11-22T21:35:21.759Z,11.40
2022-11-22T21:37:48.411Z,4.30
2022-11-22T21:40:15.144Z,10.07
2022-11-22T21:42:41.868Z,8.88
2022-11-22T21:45:09.048Z,11.13
2022-11-22T21:47:35.769Z,15.05
2022-11-22T21:50:04.973Z,18.05
2022-11-22T21:52:33.936Z,11.20
2022-11-22T21:55:00.541Z,13.30
2022-11-22T21:57:27.135Z,14.30
2022-11-22T21:59:53.858Z,13.60
2022-11-22T22:02:20.379Z,13.55
2022-11-22T22:04:47.051Z,13.70
2022-11-22T22:07:36.500Z,13.48
2022-11-22T22:10:00.198Z,9.43
2022-11-22T22:12:26.744Z,7.57
2022-11-22T22:14:53.319Z,9.32
2022-11-22T22:17:19.864Z,12.85
2022-11-22T22:19:49.412Z,9.43
2022-11-22T22:22:16.192Z,11.38
2022-11-22T22:24:42.892Z,9.75
2022-11-22T22:27:09.509Z,12.27
2022-11-22T22:29:36.079Z,8.07
2022-11-22T22:32:07.583Z,12.93
2022-11-22T22:34:36.906Z,9.57
2022-11-22T22:37:03.693Z,9.63
2022-11-22T22:39:30.705Z,9.93
2022-11-22T22:41:57.520Z,9.75
2022-11-22T22:44:24.222Z,8.80
2022-11-22T22:46:50.895Z,12.98
2022-11-22T22:49:17.461Z,14.13
2022-11-22T22:51:44.011Z,16.30
2022-11-22T22:54:10.787Z,18.73
2022-11-22T22:56:37.322Z,12.32
2022-11-22T22:59:05.269Z,10.60
2022-11-22T23:01:32.013Z,16.45
2022-11-22T23:03:59.965Z,9.50
2022-11-22T23:06:28.041Z,16.05
2022-11-22T23:08:56.567Z,12.35
2022-11-22T23:11:45.371Z,13.20
2022-11-22T23:14:12.923Z,13.18
2022-11-22T23:16:39.658Z,13.48
2022-11-22T23:19:06.849Z,15.13
2022-11-22T23:21:33.586Z,5.30
2022-11-22T23:24:00.223Z,9.45
2022-11-22T23:26:26.813Z,8.68
2022-11-22T23:28:53.565Z,9.60
2022-11-22T23:31:20.545Z,14.60
2022-11-22T23:33:47.217Z,11.05
2022-11-22T23:36:16.012Z,12.27
2022-11-22T23:38:43.012Z,11.68
2022-11-22T23:41:13.991Z,11.10
2022-11-22T23:43:41.377Z,9.23
2022-11-22T23:46:16.135Z,7.65
2022-11-22T23:48:43.917Z,9.95
2022-11-22T23:51:10.722Z,11.90
2022-11-22T23:53:37.612Z,10.13
2022-11-22T23:56:20.281Z,12.13
2022-11-22T23:58:48.456Z,11.13
